Time;durP1;ratioP1;P1;durP2;ratioP2;P2;SDS_P1;SDS_P2;PMS_P1;PMS_P2;Temp;Humidity;BMP_temperature;BMP_pressure;BME280_temperature;BME280_humidity;BME280_pressure;Samples;Min_cycle;Max_cycle;Signal;HPM_P1;HPM_P2
2023/05/18 00:00:30;;;;;;;1.30;0.85;;;;;;;;;;10105475;29;20049;-87
2023/05/18 00:05:34;;;;;;;1.50;1.08;;;;;;;;;;10123618;29;20738;-86
2023/05/18 00:10:37;;;;;;;1.75;1.05;;;;;;;;;;10105625;29;20423;-89
2023/05/18 00:15:42;;;;;;;2.75;1.00;;;;;;;;;;10121636;29;20135;-86
2023/05/18 00:20:47;;;;;;;2.08;0.88;;;;;;;;;;10111838;29;20054;-87
2023/05/18 00:25:51;;;;;;;2.20;0.95;;;;;;;;;;10121307;29;20066;-86
2023/05/18 00:30:58;;;;;;;1.25;0.80;;;;;;;;;;10105147;29;20056;-89
2023/05/18 00:36:01;;;;;;;1.95;0.93;;;;;;;;;;10105041;29;20070;-87
2023/05/18 00:41:05;;;;;;;2.42;1.13;;;;;;;;;;10103374;29;20060;-90
2023/05/18 00:46:10;;;;;;;2.75;0.98;;;;;;;;;;10105525;29;20047;-86
2023/05/18 00:51:14;;;;;;;3.88;1.20;;;;;;;;;;10110701;29;20051;-90
2023/05/18 00:56:18;;;;;;;3.38;0.95;;;;;;;;;;10113539;29;20080;-86
2023/05/18 01:01:27;;;;;;;1.95;1.05;;;;;;;;;;10112161;29;20825;-85
2023/05/18 01:06:34;;;;;;;5.20;1.20;;;;;;;;;;10106474;29;20052;-90
2023/05/18 01:11:50;;;;;;;0.80;0.75;;;;;;;;;;10112170;29;20045;-86
2023/05/18 01:17:02;;;;;;;1.70;0.70;;;;;;;;;;10129624;29;20040;-86
2023/05/18 01:22:20;;;;;;;1.45;1.02;;;;;;;;;;10107553;29;20057;-87
2023/05/18 01:27:28;;;;;;;2.38;1.30;;;;;;;;;;10111213;29;20559;-86
2023/05/18 01:32:39;;;;;;;;;;;;;;;;;;10110597;29;20487;-86
2023/05/18 01:37:44;;;;;;;1.55;0.98;;;;;;;;;;10128652;29;19927;-90
2023/05/18 01:42:53;;;;;;;2.07;1.13;;;;;;;;;;10128730;29;20045;-86
2023/05/18 01:48:00;;;;;;;5.43;1.08;;;;;;;;;;10112186;29;20223;-86
2023/05/18 01:53:12;;;;;;;2.50;0.98;;;;;;;;;;10104600;29;20044;-86
2023/05/18 01:58:17;;;;;;;3.20;1.02;;;;;;;;;;10110159;29;20049;-86
2023/05/18 02:03:21;;;;;;;2.93;1.00;;;;;;;;;;10109149;29;20052;-87
2023/05/18 02:08:25;;;;;;;2.13;1.10;;;;;;;;;;10110550;29;20095;-87
2023/05/18 02:13:30;;;;;;;3.08;1.10;;;;;;;;;;10109340;29;20056;-88
2023/05/18 02:18:35;;;;;;;1.98;1.30;;;;;;;;;;10109363;29;20056;-86
2023/05/18 02:23:38;;;;;;;1.67;0.85;;;;;;;;;;10107239;29;20524;-84
2023/05/18 02:28:46;;;;;;;1.63;0.80;;;;;;;;;;10100874;29;20045;-84
2023/05/18 02:33:50;;;;;;;2.70;0.93;;;;;;;;;;10102132;29;20048;-84
2023/05/18 02:38:56;;;;;;;3.05;1.10;;;;;;;;;;10101448;29;20052;-84
2023/05/18 02:44:02;;;;;;;2.30;1.43;;;;;;;;;;10100151;29;20040;-84
2023/05/18 02:49:07;;;;;;;2.25;0.90;;;;;;;;;;10117451;29;20052;-84
2023/05/18 02:54:11;;;;;;;4.45;0.90;;;;;;;;;;10098912;29;20073;-84
2023/05/18 02:59:19;;;;;;;1.75;0.90;;;;;;;;;;10100856;29;20048;-84
2023/05/18 03:04:24;;;;;;;3.67;0.98;;;;;;;;;;10094085;29;20097;-84
2023/05/18 03:09:30;;;;;;;2.13;0.90;;;;;;;;;;10099249;29;20072;-84
2023/05/18 03:14:35;;;;;;;2.45;1.23;;;;;;;;;;10100255;29;20132;-84
2023/05/18 03:19:40;;;;;;;2.90;0.90;;;;;;;;;;10104115;29;20083;-86
2023/05/18 03:24:43;;;;;;;1.73;0.82;;;;;;;;;;10105107;29;20052;-91
2023/05/18 03:29:53;;;;;;;2.25;1.23;;;;;;;;;;10099289;29;20040;-87
2023/05/18 03:35:06;;;;;;;1.88;1.08;;;;;;;;;;10108419;29;20181;-86
2023/05/18 03:40:13;;;;;;;1.80;0.90;;;;;;;;;;10109015;29;20049;-89
2023/05/18 03:45:20;;;;;;;1.70;1.05;;;;;;;;;;10108121;29;20041;-86
2023/05/18 03:50:24;;;;;;;2.67;1.13;;;;;;;;;;10106664;29;20424;-88
2023/05/18 03:55:28;;;;;;;1.20;1.02;;;;;;;;;;10108707;29;20060;-88
2023/05/18 04:00:34;;;;;;;1.40;0.82;;;;;;;;;;10114067;29;20041;-87
2023/05/18 04:05:38;;;;;;;2.90;1.13;;;;;;;;;;10120420;29;20045;-87
2023/05/18 04:10:42;;;;;;;4.38;1.35;;;;;;;;;;10107805;29;20059;-87
2023/05/18 04:15:47;;;;;;;1.70;0.93;;;;;;;;;;10107237;29;20108;-87
2023/05/18 04:20:51;;;;;;;3.35;1.02;;;;;;;;;;10106024;29;20080;-90
2023/05/18 04:25:55;;;;;;;2.97;1.00;;;;;;;;;;10108207;29;20052;-89
2023/05/18 04:31:00;;;;;;;3.35;1.20;;;;;;;;;;10122459;29;20063;-86
2023/05/18 04:36:06;;;;;;;1.25;0.80;;;;;;;;;;10107582;29;20397;-89
2023/05/18 04:41:09;;;;;;;0.87;0.87;;;;;;;;;;10106784;29;20128;-86
2023/05/18 04:46:15;;;;;;;1.52;1.00;;;;;;;;;;10106887;29;20951;-87
2023/05/18 04:51:20;;;;;;;1.52;0.80;;;;;;;;;;10105577;29;20040;-86
2023/05/18 04:56:23;;;;;;;1.20;0.90;;;;;;;;;;10106673;29;20124;-87
2023/05/18 05:01:28;;;;;;;0.95;0.90;;;;;;;;;;10106493;29;20072;-92
2023/05/18 05:06:32;;;;;;;0.73;0.68;;;;;;;;;;10105777;29;20501;-86
2023/05/18 05:11:36;;;;;;;2.67;0.80;;;;;;;;;;10122199;29;20131;-91
2023/05/18 05:16:41;;;;;;;2.55;1.23;;;;;;;;;;10105930;29;20057;-86
2023/05/18 05:21:44;;;;;;;2.53;0.95;;;;;;;;;;10105485;29;20068;-87
2023/05/18 05:26:48;;;;;;;1.25;0.88;;;;;;;;;;10105505;29;20053;-87
2023/05/18 05:31:53;;;;;;;1.95;0.88;;;;;;;;;;10104674;29;20060;-87
2023/05/18 05:36:57;;;;;;;1.50;0.90;;;;;;;;;;10110759;29;20524;-90
2023/05/18 05:42:07;;;;;;;1.52;1.17;;;;;;;;;;10111382;29;20112;-86
2023/05/18 05:47:12;;;;;;;0.95;0.73;;;;;;;;;;10111627;29;20044;-85
2023/05/18 05:52:17;;;;;;;2.05;1.00;;;;;;;;;;10111127;29;20049;-87
2023/05/18 05:57:21;;;;;;;1.00;0.93;;;;;;;;;;10112333;29;20051;-90
2023/05/18 06:02:26;;;;;;;4.00;1.17;;;;;;;;;;10111977;29;20532;-87
2023/05/18 06:07:31;;;;;;;2.33;1.20;;;;;;;;;;10112297;29;20081;-86
2023/05/18 06:12:35;;;;;;;1.77;0.85;;;;;;;;;;10110217;29;20055;-90
2023/05/18 06:17:42;;;;;;;2.75;1.00;;;;;;;;;;10111523;29;20104;-88
2023/05/18 06:22:47;;;;;;;3.15;1.67;;;;;;;;;;10110480;29;20053;-87
2023/05/18 06:28:08;;;;;;;2.97;1.08;;;;;;;;;;10111138;29;20060;-87
2023/05/18 06:33:22;;;;;;;3.67;1.38;;;;;;;;;;10110224;29;20104;-88
2023/05/18 06:38:26;;;;;;;1.50;1.00;;;;;;;;;;10110615;29;20714;-88
2023/05/18 06:43:29;;;;;;;4.15;1.23;;;;;;;;;;10110281;29;20059;-86
2023/05/18 06:49:00;;;;;;;3.88;1.30;;;;;;;;;;10110053;29;20062;-87
2023/05/18 06:54:04;;;;;;;2.75;1.10;;;;;;;;;;10108678;29;20440;-93
2023/05/18 06:59:08;;;;;;;2.80;0.95;;;;;;;;;;10102255;29;20100;-87
2023/05/18 07:04:14;;;;;;;3.00;1.17;;;;;;;;;;10108536;29;20135;-86
2023/05/18 07:09:18;;;;;;;4.10;1.02;;;;;;;;;;10106415;29;20082;-86
2023/05/18 07:14:29;;;;;;;3.35;1.08;;;;;;;;;;10108131;29;20044;-89
2023/05/18 07:19:35;;;;;;;3.15;0.93;;;;;;;;;;10108549;29;20108;-87
2023/05/18 07:24:47;;;;;;;1.65;0.80;;;;;;;;;;10108636;29;20055;-90
2023/05/18 07:29:54;;;;;;;2.33;1.08;;;;;;;;;;10101719;29;20104;-90
2023/05/18 07:34:59;;;;;;;1.25;0.70;;;;;;;;;;10108031;29;20733;-87
2023/05/18 07:40:04;;;;;;;2.65;1.17;;;;;;;;;;10108351;29;20400;-89
2023/05/18 07:45:09;;;;;;;4.55;0.90;;;;;;;;;;10108607;29;20048;-87
2023/05/18 07:50:17;;;;;;;5.07;1.33;;;;;;;;;;10103350;29;20033;-84
2023/05/18 07:55:20;;;;;;;3.00;1.10;;;;;;;;;;10095517;29;20044;-84
2023/05/18 08:00:26;;;;;;;3.75;1.10;;;;;;;;;;10116874;29;20048;-86
2023/05/18 08:05:30;;;;;;;5.50;1.25;;;;;;;;;;10101003;29;20068;-87
2023/05/18 08:10:34;;;;;;;4.13;0.88;;;;;;;;;;10102638;29;20162;-86
2023/05/18 08:15:40;;;;;;;2.28;1.20;;;;;;;;;;10108412;29;20053;-87
2023/05/18 08:20:45;;;;;;;3.92;1.15;;;;;;;;;;10121699;29;20052;-86
2023/05/18 08:25:48;;;;;;;2.10;1.00;;;;;;;;;;10105165;29;20476;-87
2023/05/18 08:30:52;;;;;;;2.33;1.00;;;;;;;;;;10120933;29;20053;-85
2023/05/18 08:35:57;;;;;;;3.60;1.17;;;;;;;;;;10110160;29;20112;-86
2023/05/18 08:41:11;;;;;;;3.72;1.00;;;;;;;;;;10119839;29;20055;-86
2023/05/18 08:46:19;;;;;;;3.58;1.20;;;;;;;;;;10121601;29;20742;-86
2023/05/18 08:51:39;;;;;;;4.45;1.02;;;;;;;;;;10085516;29;20060;-86
2023/05/18 08:57:02;;;;;;;3.20;1.15;;;;;;;;;;10099524;29;20423;-86
2023/05/18 09:02:06;;;;;;;4.47;1.40;;;;;;;;;;10104587;29;20048;-86
2023/05/18 09:07:14;;;;;;;2.95;1.30;;;;;;;;;;10129302;29;20048;-86
2023/05/18 09:12:39;;;;;;;2.67;1.23;;;;;;;;;;10108797;29;20143;-89
2023/05/18 09:17:52;;;;;;;3.33;1.10;;;;;;;;;;10110788;29;20049;-89
2023/05/18 09:22:59;;;;;;;3.78;0.80;;;;;;;;;;10122427;29;20048;-88
2023/05/18 09:28:03;;;;;;;2.30;1.02;;;;;;;;;;10110290;29;20090;-89
2023/05/18 09:33:17;;;;;;;2.63;0.90;;;;;;;;;;10112390;29;20449;-88
2023/05/18 09:38:26;;;;;;;3.17;1.13;;;;;;;;;;10112698;29;20109;-88
2023/05/18 09:43:30;;;;;;;2.05;0.88;;;;;;;;;;10112402;29;20429;-87
2023/05/18 09:48:36;;;;;;;3.05;1.20;;;;;;;;;;10116907;29;20049;-86
2023/05/18 09:53:42;;;;;;;3.78;1.13;;;;;;;;;;10133069;29;20053;-87
2023/05/18 09:58:46;;;;;;;8.02;1.60;;;;;;;;;;10111970;29;20682;-87
2023/05/18 10:03:52;;;;;;;2.45;0.93;;;;;;;;;;10106558;29;20068;-87
2023/05/18 10:08:57;;;;;;;3.73;1.00;;;;;;;;;;10110862;29;20104;-87
2023/05/18 10:14:01;;;;;;;4.28;1.10;;;;;;;;;;10108987;29;20049;-89
2023/05/18 10:26:09;;;;;;;2.92;1.25;;;;;;;;;;10105256;29;20041;-86
2023/05/18 10:31:15;;;;;;;1.35;0.60;;;;;;;;;;10107317;29;20376;-88
2023/05/18 10:36:19;;;;;;;4.88;0.80;;;;;;;;;;10107347;29;20055;-87
2023/05/18 10:41:26;;;;;;;2.95;0.98;;;;;;;;;;10105988;29;20083;-89
2023/05/18 10:46:30;;;;;;;3.22;1.00;;;;;;;;;;10106666;29;20057;-88
2023/05/18 10:51:34;;;;;;;3.97;1.40;;;;;;;;;;10105951;29;20402;-88
2023/05/18 10:56:40;;;;;;;3.03;1.42;;;;;;;;;;10124418;29;20397;-89
2023/05/18 11:01:44;;;;;;;3.40;1.23;;;;;;;;;;10104786;29;20130;-85
2023/05/18 11:06:57;;;;;;;5.78;1.30;;;;;;;;;;10239563;23;20128;-84
2023/05/18 11:12:04;;;;;;;5.28;1.52;;;;;;;;;;10065204;29;20065;-83
2023/05/18 11:17:17;;;;;;;2.58;0.80;;;;;;;;;;10058639;29;20052;-83
2023/05/18 11:22:21;;;;;;;4.13;1.00;;;;;;;;;;10081878;29;20378;-83
2023/05/18 11:27:26;;;;;;;3.33;0.82;;;;;;;;;;10061041;29;20094;-83
2023/05/18 11:32:32;;;;;;;3.13;0.95;;;;;;;;;;10061953;29;20060;-83
2023/05/18 11:37:48;;;;;;;2.75;1.02;;;;;;;;;;10054318;29;20064;-83
2023/05/18 11:42:59;;;;;;;2.00;0.80;;;;;;;;;;10055258;29;20065;-83
2023/05/18 11:59:14;;;;;;;1.75;0.68;;;;;;;;;;12801856;22;1230872;-83
2023/05/18 12:04:18;;;;;;;1.88;0.77;;;;;;;;;;12794568;23;20064;-83
2023/05/18 12:09:22;;;;;;;3.08;1.10;;;;;;;;;;12793274;23;20087;-83
2023/05/18 12:14:27;;;;;;;3.88;1.10;;;;;;;;;;12796320;23;20563;-82
2023/05/18 12:19:36;;;;;;;2.93;1.07;;;;;;;;;;12797815;23;20087;-83
2023/05/18 12:24:41;;;;;;;2.40;0.98;;;;;;;;;;12797605;23;20529;-83
2023/05/18 12:29:46;;;;;;;3.43;0.90;;;;;;;;;;12796597;23;20033;-83
2023/05/18 12:34:51;;;;;;;3.03;1.08;;;;;;;;;;12797641;23;20089;-83
2023/05/18 12:39:54;;;;;;;3.63;1.00;;;;;;;;;;12794630;23;20647;-82
2023/05/18 12:44:59;;;;;;;2.47;0.75;;;;;;;;;;12794518;23;20136;-83
2023/05/18 12:50:03;;;;;;;4.00;1.42;;;;;;;;;;12796104;23;20025;-83
2023/05/18 12:55:09;;;;;;;2.95;1.02;;;;;;;;;;12811322;23;20257;-83
2023/05/18 13:00:14;;;;;;;;;;;;;;;;;;12819914;23;20024;-83
2023/05/18 13:05:24;;;;;;;4.43;1.40;;;;;;;;;;12816857;23;20220;-83
2023/05/18 13:10:31;;;;;;;4.18;1.20;;;;;;;;;;12844462;23;20052;-83
2023/05/18 13:15:37;;;;;;;2.13;1.25;;;;;;;;;;12814805;23;20632;-82
2023/05/18 13:20:43;;;;;;;3.97;1.50;;;;;;;;;;12903126;23;20049;-83
2023/05/18 13:25:47;;;;;;;2.63;0.80;;;;;;;;;;12930160;23;20066;-83
2023/05/18 13:30:52;;;;;;;1.63;0.70;;;;;;;;;;12880958;23;20030;-82
2023/05/18 13:35:55;;;;;;;2.90;1.20;;;;;;;;;;12878093;23;20016;-82
2023/05/18 13:40:58;;;;;;;2.85;1.05;;;;;;;;;;12904612;23;20066;-82
2023/05/18 13:46:03;;;;;;;3.75;1.45;;;;;;;;;;12878672;23;20099;-82
2023/05/18 13:51:06;;;;;;;2.00;1.13;;;;;;;;;;12876622;23;20027;-82
2023/05/18 13:56:10;;;;;;;3.65;1.35;;;;;;;;;;12877909;23;20034;-82
2023/05/18 14:01:16;;;;;;;1.85;0.95;;;;;;;;;;12876318;23;20671;-83
2023/05/18 14:06:22;;;;;;;3.20;1.25;;;;;;;;;;12902795;23;20020;-82
2023/05/18 14:11:25;;;;;;;6.10;1.45;;;;;;;;;;12874850;23;20020;-81
2023/05/18 14:16:30;;;;;;;1.30;0.75;;;;;;;;;;12903843;23;20095;-82
2023/05/18 14:21:34;;;;;;;2.00;0.88;;;;;;;;;;12874335;23;20487;-82
2023/05/18 14:26:37;;;;;;;2.00;0.70;;;;;;;;;;12878178;23;20459;-82
2023/05/18 14:31:42;;;;;;;3.33;1.20;;;;;;;;;;12876093;23;20456;-82
2023/05/18 14:36:45;;;;;;;2.58;0.93;;;;;;;;;;12876125;23;20108;-82
2023/05/18 14:41:48;;;;;;;3.00;0.88;;;;;;;;;;12877430;23;20046;-82
2023/05/18 14:46:54;;;;;;;1.98;0.80;;;;;;;;;;12877088;23;20034;-82
2023/05/18 14:51:57;;;;;;;2.67;1.00;;;;;;;;;;12899333;23;20603;-83
2023/05/18 14:57:00;;;;;;;3.03;1.00;;;;;;;;;;12878295;23;20493;-82
2023/05/18 15:02:06;;;;;;;3.45;1.13;;;;;;;;;;12875858;23;20155;-82
2023/05/18 15:07:10;;;;;;;2.10;0.73;;;;;;;;;;12877185;23;20028;-82
2023/05/18 15:12:13;;;;;;;2.65;0.80;;;;;;;;;;12876899;23;20124;-82
2023/05/18 15:17:18;;;;;;;4.38;1.27;;;;;;;;;;12904129;23;20035;-81
2023/05/18 15:22:21;;;;;;;2.25;1.00;;;;;;;;;;12876318;23;20027;-82
2023/05/18 15:27:25;;;;;;;2.05;0.95;;;;;;;;;;12905037;23;20749;-82
2023/05/18 15:32:30;;;;;;;2.45;1.25;;;;;;;;;;12879922;23;20418;-82
2023/05/18 15:37:33;;;;;;;3.10;0.80;;;;;;;;;;12919335;23;20039;-82
2023/05/18 15:42:37;;;;;;;2.33;0.75;;;;;;;;;;12878710;23;20020;-82
2023/05/18 15:47:42;;;;;;;3.58;1.08;;;;;;;;;;12878312;23;20107;-82
2023/05/18 15:52:45;;;;;;;4.90;1.38;;;;;;;;;;12875993;23;20028;-82
2023/05/18 15:57:48;;;;;;;3.08;1.20;;;;;;;;;;12875893;23;20063;-82
2023/05/18 16:02:53;;;;;;;1.48;0.68;;;;;;;;;;12871417;23;20028;-83
2023/05/18 16:07:56;;;;;;;2.63;0.80;;;;;;;;;;12875014;23;20028;-82
2023/05/18 16:13:04;;;;;;;2.28;1.00;;;;;;;;;;12899739;23;20051;-82
2023/05/18 16:18:09;;;;;;;2.78;0.70;;;;;;;;;;12876162;23;20384;-82
2023/05/18 16:23:12;;;;;;;3.75;1.00;;;;;;;;;;12873542;23;20032;-82
2023/05/18 16:28:15;;;;;;;2.25;1.00;;;;;;;;;;12874593;23;20024;-82
2023/05/18 16:33:20;;;;;;;1.63;0.80;;;;;;;;;;12913635;23;20078;-83
2023/05/18 16:38:23;;;;;;;2.30;1.02;;;;;;;;;;12909670;23;20071;-82
2023/05/18 16:43:27;;;;;;;1.48;1.10;;;;;;;;;;12878248;23;20048;-82
2023/05/18 16:48:32;;;;;;;2.45;1.00;;;;;;;;;;12905633;23;20024;-83
2023/05/18 16:53:36;;;;;;;2.53;0.93;;;;;;;;;;12880503;23;20047;-82
2023/05/18 16:58:39;;;;;;;3.38;1.00;;;;;;;;;;12915489;23;20100;-82
2023/05/18 17:09:23;;;;;;;2.13;0.80;;;;;;;;;;12851514;22;20099;-86
2023/05/18 17:14:26;;;;;;;1.27;0.70;;;;;;;;;;12776182;23;20053;-88
2023/05/18 17:19:33;;;;;;;3.53;1.17;;;;;;;;;;12788089;23;20081;-85
2023/05/18 17:24:40;;;;;;;1.23;0.50;;;;;;;;;;12789251;23;20036;-85
2023/05/18 17:29:43;;;;;;;3.75;1.20;;;;;;;;;;12756237;23;20040;-89
2023/05/18 17:34:48;;;;;;;2.92;0.90;;;;;;;;;;12756709;23;20033;-86
2023/05/18 17:39:51;;;;;;;4.13;1.60;;;;;;;;;;12756386;23;20068;-86
2023/05/18 17:44:55;;;;;;;3.58;0.90;;;;;;;;;;12757167;23;20044;-86
2023/05/18 17:49:59;;;;;;;2.28;0.90;;;;;;;;;;12783615;23;20021;-88
2023/05/18 17:55:03;;;;;;;2.20;0.88;;;;;;;;;;12756544;23;20025;-86
2023/05/18 18:00:11;;;;;;;1.05;0.63;;;;;;;;;;12759458;23;20025;-89
2023/05/18 18:05:18;;;;;;;2.20;0.47;;;;;;;;;;12784031;23;20460;-86
2023/05/18 18:10:23;;;;;;;1.80;0.68;;;;;;;;;;12782333;23;20025;-86
2023/05/18 18:15:27;;;;;;;3.43;0.77;;;;;;;;;;12785070;23;20777;-87
2023/05/18 18:20:35;;;;;;;2.22;0.80;;;;;;;;;;12748312;23;20269;-87
2023/05/18 18:25:39;;;;;;;1.92;0.73;;;;;;;;;;12772947;23;20119;-86
2023/05/18 18:30:43;;;;;;;3.22;0.85;;;;;;;;;;12795923;23;20024;-88
2023/05/18 18:35:48;;;;;;;2.55;0.80;;;;;;;;;;12774937;23;20029;-86
2023/05/18 18:40:52;;;;;;;3.92;1.00;;;;;;;;;;12740705;23;20077;-86
2023/05/18 18:45:56;;;;;;;1.65;0.60;;;;;;;;;;12794220;23;20017;-85
2023/05/18 18:51:01;;;;;;;4.53;0.68;;;;;;;;;;12772583;23;20333;-86
2023/05/18 18:56:04;;;;;;;1.58;0.70;;;;;;;;;;12747468;23;20535;-85
2023/05/18 19:01:08;;;;;;;1.67;0.60;;;;;;;;;;12747760;23;20091;-87
2023/05/18 19:06:16;;;;;;;1.45;0.63;;;;;;;;;;12772285;23;20025;-89
2023/05/18 19:11:20;;;;;;;2.00;0.55;;;;;;;;;;12763941;23;20247;-86
2023/05/18 19:16:24;;;;;;;2.47;0.60;;;;;;;;;;12742257;23;20334;-86
2023/05/18 19:21:29;;;;;;;2.25;0.80;;;;;;;;;;12740716;23;20072;-87
2023/05/18 19:26:32;;;;;;;1.20;0.55;;;;;;;;;;12743618;23;20087;-86
2023/05/18 19:31:36;;;;;;;2.63;0.80;;;;;;;;;;12773221;23;20024;-87
2023/05/18 19:36:42;;;;;;;2.67;0.98;;;;;;;;;;12742069;23;20055;-85
2023/05/18 19:41:46;;;;;;;1.73;0.75;;;;;;;;;;12782259;23;20025;-86
2023/05/18 19:46:49;;;;;;;1.55;0.60;;;;;;;;;;12745951;23;20021;-87
2023/05/18 19:51:54;;;;;;;3.30;0.70;;;;;;;;;;12745427;23;20146;-86
2023/05/18 19:56:58;;;;;;;2.88;0.73;;;;;;;;;;12748217;23;20056;-88
2023/05/18 20:02:03;;;;;;;2.53;1.40;;;;;;;;;;12741205;23;20027;-87
2023/05/18 20:07:08;;;;;;;4.32;0.80;;;;;;;;;;12748461;23;20087;-86
2023/05/18 20:12:12;;;;;;;2.03;1.20;;;;;;;;;;12742497;23;20029;-86
2023/05/18 20:17:15;;;;;;;1.88;0.80;;;;;;;;;;12750352;23;20049;-86
2023/05/18 20:22:20;;;;;;;2.38;0.77;;;;;;;;;;12752272;23;20029;-87
2023/05/18 20:27:23;;;;;;;1.50;0.70;;;;;;;;;;12755425;23;20021;-86
2023/05/18 20:32:31;;;;;;;3.42;0.80;;;;;;;;;;12755999;23;20091;-87
2023/05/18 20:37:36;;;;;;;2.30;0.80;;;;;;;;;;12757390;23;20021;-86
2023/05/18 20:42:39;;;;;;;1.52;0.77;;;;;;;;;;12757123;23;20393;-86
2023/05/18 20:47:43;;;;;;;1.17;0.73;;;;;;;;;;12756759;23;20021;-86
2023/05/18 20:52:48;;;;;;;1.95;1.02;;;;;;;;;;12759404;23;20025;-85
2023/05/18 20:57:51;;;;;;;4.53;1.00;;;;;;;;;;12760680;23;20021;-87
2023/05/18 21:02:55;;;;;;;1.63;1.13;;;;;;;;;;12759284;23;20071;-86
2023/05/18 21:08:00;;;;;;;4.78;1.80;;;;;;;;;;12757902;23;20337;-88
2023/05/18 21:13:03;;;;;;;6.18;1.98;;;;;;;;;;12761069;23;20056;-87
2023/05/18 21:18:06;;;;;;;3.20;1.73;;;;;;;;;;12758951;23;20017;-89
2023/05/18 21:23:11;;;;;;;2.65;1.20;;;;;;;;;;12756343;23;20120;-86
2023/05/18 21:28:15;;;;;;;2.55;1.30;;;;;;;;;;12757288;23;20071;-86
2023/05/18 21:33:18;;;;;;;1.27;0.80;;;;;;;;;;12755719;23;20037;-88
2023/05/18 21:38:23;;;;;;;1.77;1.00;;;;;;;;;;12776965;23;20337;-86
2023/05/18 21:43:34;;;;;;;2.63;0.90;;;;;;;;;;12782676;23;20585;-87
2023/05/18 21:48:38;;;;;;;2.10;1.00;;;;;;;;;;12751886;23;20289;-87
2023/05/18 21:53:43;;;;;;;2.17;0.90;;;;;;;;;;12750321;23;20095;-87
2023/05/18 21:58:46;;;;;;;2.20;0.75;;;;;;;;;;12775986;23;20060;-86
2023/05/18 22:03:50;;;;;;;3.80;0.90;;;;;;;;;;12777050;23;20031;-86
2023/05/18 22:08:55;;;;;;;1.92;0.90;;;;;;;;;;12752161;23;20017;-89
2023/05/18 22:13:58;;;;;;;2.55;1.25;;;;;;;;;;12750749;23;20338;-88
2023/05/18 22:19:02;;;;;;;1.30;0.70;;;;;;;;;;12751054;23;20021;-86
2023/05/18 22:24:07;;;;;;;2.28;0.60;;;;;;;;;;12751730;23;20025;-86
2023/05/18 22:29:10;;;;;;;3.15;0.90;;;;;;;;;;12749329;23;20096;-86
2023/05/18 22:34:14;;;;;;;1.95;1.00;;;;;;;;;;12751144;23;20025;-86
2023/05/18 22:39:18;;;;;;;1.50;1.02;;;;;;;;;;12750610;23;20303;-86
2023/05/18 22:44:22;;;;;;;2.72;1.10;;;;;;;;;;12749944;23;20464;-89
2023/05/18 22:49:25;;;;;;;3.28;1.20;;;;;;;;;;12749740;23;20107;-86
2023/05/18 22:54:32;;;;;;;2.93;0.90;;;;;;;;;;12779956;23;20037;-86
2023/05/18 22:59:37;;;;;;;2.53;0.70;;;;;;;;;;12777032;23;20028;-86
2023/05/18 23:04:40;;;;;;;1.42;0.75;;;;;;;;;;12749174;23;20287;-86
2023/05/18 23:09:45;;;;;;;2.17;0.90;;;;;;;;;;12779505;23;20472;-86
2023/05/18 23:14:48;;;;;;;3.25;0.90;;;;;;;;;;12749304;23;20061;-87
2023/05/18 23:19:52;;;;;;;2.25;1.02;;;;;;;;;;12749794;23;20018;-86
2023/05/18 23:24:58;;;;;;;1.98;0.80;;;;;;;;;;12749141;23;20398;-85
2023/05/18 23:30:01;;;;;;;1.73;0.80;;;;;;;;;;12776740;23;20024;-87
2023/05/18 23:35:09;;;;;;;5.85;0.95;;;;;;;;;;12750732;23;20025;-87
2023/05/18 23:40:17;;;;;;;1.30;0.82;;;;;;;;;;12748726;23;20495;-86
2023/05/18 23:45:22;;;;;;;1.65;0.93;;;;;;;;;;12750170;23;20048;-88
2023/05/18 23:50:26;;;;;;;1.77;1.17;;;;;;;;;;12776855;23;20029;-86
2023/05/18 23:55:40;;;;;;;1.60;1.05;;;;;;;;;;12750945;23;20025;-86
